sensor_id;sensor_type;location;lat;lon;timestamp;P1;durP1;ratioP1;P2;durP2;ratioP2
13349;SDS011;6744;53.190;6.576;2022-08-19T00:01:38;4.27;;;3.80;;
13349;SDS011;6744;53.190;6.576;2022-08-19T00:04:06;4.13;;;3.53;;
13349;SDS011;6744;53.190;6.576;2022-08-19T00:06:33;4.50;;;4.10;;
13349;SDS011;6744;53.190;6.576;2022-08-19T00:09:00;4.77;;;4.37;;
13349;SDS011;6744;53.190;6.576;2022-08-19T00:11:26;5.40;;;4.07;;
13349;SDS011;6744;53.190;6.576;2022-08-19T00:13:52;4.33;;;3.93;;
13349;SDS011;6744;53.190;6.576;2022-08-19T00:16:19;3.70;;;3.40;;
13349;SDS011;6744;53.190;6.576;2022-08-19T00:18:46;4.07;;;3.67;;
13349;SDS011;6744;53.190;6.576;2022-08-19T00:21:12;3.70;;;3.40;;
13349;SDS011;6744;53.190;6.576;2022-08-19T00:23:39;4.53;;;4.13;;
13349;SDS011;6744;53.190;6.576;2022-08-19T00:26:05;4.10;;;3.70;;
13349;SDS011;6744;53.190;6.576;2022-08-19T00:28:31;4.00;;;3.70;;
13349;SDS011;6744;53.190;6.576;2022-08-19T00:30:57;3.73;;;3.33;;
13349;SDS011;6744;53.190;6.576;2022-08-19T00:33:23;3.50;;;3.20;;
13349;SDS011;6744;53.190;6.576;2022-08-19T00:35:49;4.33;;;3.93;;
13349;SDS011;6744;53.190;6.576;2022-08-19T00:38:14;4.70;;;4.30;;
13349;SDS011;6744;53.190;6.576;2022-08-19T00:40:40;4.40;;;3.83;;
13349;SDS011;6744;53.190;6.576;2022-08-19T00:43:11;3.80;;;3.50;;
13349;SDS011;6744;53.190;6.576;2022-08-19T00:45:40;4.53;;;4.13;;
13349;SDS011;6744;53.190;6.576;2022-08-19T00:48:09;4.83;;;4.40;;
13349;SDS011;6744;53.190;6.576;2022-08-19T00:50:35;5.20;;;4.70;;
13349;SDS011;6744;53.190;6.576;2022-08-19T00:53:01;5.70;;;4.40;;
13349;SDS011;6744;53.190;6.576;2022-08-19T00:55:29;4.70;;;4.30;;
13349;SDS011;6744;53.190;6.576;2022-08-19T00:57:57;5.00;;;4.33;;
13349;SDS011;6744;53.190;6.576;2022-08-19T01:00:27;4.27;;;3.97;;
13349;SDS011;6744;53.190;6.576;2022-08-19T01:02:53;5.27;;;4.50;;
13349;SDS011;6744;53.190;6.576;2022-08-19T01:05:23;4.50;;;4.10;;
13349;SDS011;6744;53.190;6.576;2022-08-19T01:07:55;5.10;;;4.70;;
13349;SDS011;6744;53.190;6.576;2022-08-19T01:10:24;4.90;;;4.40;;
13349;SDS011;6744;53.190;6.576;2022-08-19T01:12:51;5.03;;;4.63;;
13349;SDS011;6744;53.190;6.576;2022-08-19T01:15:19;5.10;;;4.70;;
13349;SDS011;6744;53.190;6.576;2022-08-19T01:17:46;5.03;;;4.53;;
13349;SDS011;6744;53.190;6.576;2022-08-19T01:20:13;4.70;;;4.30;;
13349;SDS011;6744;53.190;6.576;2022-08-19T01:22:44;5.00;;;4.60;;
13349;SDS011;6744;53.190;6.576;2022-08-19T01:25:13;4.90;;;4.50;;
13349;SDS011;6744;53.190;6.576;2022-08-19T01:27:41;5.33;;;4.83;;
13349;SDS011;6744;53.190;6.576;2022-08-19T01:30:09;4.87;;;4.37;;
13349;SDS011;6744;53.190;6.576;2022-08-19T01:32:39;5.33;;;4.83;;
13349;SDS011;6744;53.190;6.576;2022-08-19T01:35:05;4.30;;;4.00;;
13349;SDS011;6744;53.190;6.576;2022-08-19T01:37:40;5.13;;;4.73;;
13349;SDS011;6744;53.190;6.576;2022-08-19T01:40:13;4.53;;;4.13;;
13349;SDS011;6744;53.190;6.576;2022-08-19T01:42:38;5.80;;;5.30;;
13349;SDS011;6744;53.190;6.576;2022-08-19T01:45:05;5.37;;;4.87;;
13349;SDS011;6744;53.190;6.576;2022-08-19T01:47:33;4.57;;;4.23;;
13349;SDS011;6744;53.190;6.576;2022-08-19T01:50:00;5.50;;;5.00;;
13349;SDS011;6744;53.190;6.576;2022-08-19T01:52:25;5.33;;;4.93;;
13349;SDS011;6744;53.190;6.576;2022-08-19T01:54:52;5.70;;;5.20;;
13349;SDS011;6744;53.190;6.576;2022-08-19T01:57:17;5.03;;;4.60;;
13349;SDS011;6744;53.190;6.576;2022-08-19T01:59:42;5.60;;;5.20;;
13349;SDS011;6744;53.190;6.576;2022-08-19T02:02:08;6.10;;;5.60;;
13349;SDS011;6744;53.190;6.576;2022-08-19T02:04:34;6.07;;;5.67;;
13349;SDS011;6744;53.190;6.576;2022-08-19T02:07:02;5.77;;;5.27;;
13349;SDS011;6744;53.190;6.576;2022-08-19T02:09:28;6.23;;;5.67;;
13349;SDS011;6744;53.190;6.576;2022-08-19T02:11:53;6.37;;;5.87;;
13349;SDS011;6744;53.190;6.576;2022-08-19T02:14:19;7.07;;;6.50;;
13349;SDS011;6744;53.190;6.576;2022-08-19T02:16:44;7.20;;;6.60;;
13349;SDS011;6744;53.190;6.576;2022-08-19T02:19:09;7.50;;;6.90;;
13349;SDS011;6744;53.190;6.576;2022-08-19T02:21:35;6.57;;;5.97;;
13349;SDS011;6744;53.190;6.576;2022-08-19T02:24:01;6.90;;;6.40;;
13349;SDS011;6744;53.190;6.576;2022-08-19T02:26:26;7.23;;;6.53;;
13349;SDS011;6744;53.190;6.576;2022-08-19T02:28:52;7.03;;;6.50;;
13349;SDS011;6744;53.190;6.576;2022-08-19T02:31:20;6.83;;;6.33;;
13349;SDS011;6744;53.190;6.576;2022-08-19T02:33:46;7.73;;;7.03;;
13349;SDS011;6744;53.190;6.576;2022-08-19T02:36:12;6.80;;;6.23;;
13349;SDS011;6744;53.190;6.576;2022-08-19T02:38:39;6.37;;;5.83;;
13349;SDS011;6744;53.190;6.576;2022-08-19T02:41:07;6.80;;;6.20;;
13349;SDS011;6744;53.190;6.576;2022-08-19T02:43:36;6.93;;;6.33;;
13349;SDS011;6744;53.190;6.576;2022-08-19T02:46:10;6.50;;;5.90;;
13349;SDS011;6744;53.190;6.576;2022-08-19T02:48:37;6.43;;;5.83;;
13349;SDS011;6744;53.190;6.576;2022-08-19T02:51:02;6.80;;;6.20;;
13349;SDS011;6744;53.190;6.576;2022-08-19T02:53:27;6.30;;;5.80;;
13349;SDS011;6744;53.190;6.576;2022-08-19T02:55:53;6.40;;;5.90;;
13349;SDS011;6744;53.190;6.576;2022-08-19T02:58:20;7.00;;;6.40;;
13349;SDS011;6744;53.190;6.576;2022-08-19T03:00:48;6.10;;;5.60;;
13349;SDS011;6744;53.190;6.576;2022-08-19T03:03:15;6.37;;;5.87;;
13349;SDS011;6744;53.190;6.576;2022-08-19T03:05:41;5.87;;;5.47;;
13349;SDS011;6744;53.190;6.576;2022-08-19T03:08:07;6.43;;;5.93;;
13349;SDS011;6744;53.190;6.576;2022-08-19T03:10:39;6.10;;;5.60;;
13349;SDS011;6744;53.190;6.576;2022-08-19T03:13:07;5.60;;;5.20;;
13349;SDS011;6744;53.190;6.576;2022-08-19T03:15:32;6.70;;;6.10;;
13349;SDS011;6744;53.190;6.576;2022-08-19T03:17:58;7.23;;;6.67;;
13349;SDS011;6744;53.190;6.576;2022-08-19T03:20:23;7.33;;;6.73;;
13349;SDS011;6744;53.190;6.576;2022-08-19T03:22:50;7.73;;;7.00;;
13349;SDS011;6744;53.190;6.576;2022-08-19T03:25:15;7.07;;;6.57;;
13349;SDS011;6744;53.190;6.576;2022-08-19T03:27:41;7.73;;;7.03;;
13349;SDS011;6744;53.190;6.576;2022-08-19T03:30:06;6.80;;;6.20;;
13349;SDS011;6744;53.190;6.576;2022-08-19T03:32:32;6.10;;;5.60;;
13349;SDS011;6744;53.190;6.576;2022-08-19T03:34:58;6.73;;;6.13;;
13349;SDS011;6744;53.190;6.576;2022-08-19T03:37:23;6.60;;;6.07;;
13349;SDS011;6744;53.190;6.576;2022-08-19T03:39:49;7.37;;;6.77;;
13349;SDS011;6744;53.190;6.576;2022-08-19T03:42:14;7.13;;;6.53;;
13349;SDS011;6744;53.190;6.576;2022-08-19T03:44:41;6.97;;;6.47;;
13349;SDS011;6744;53.190;6.576;2022-08-19T03:47:09;7.13;;;6.53;;
13349;SDS011;6744;53.190;6.576;2022-08-19T03:49:37;7.87;;;7.10;;
13349;SDS011;6744;53.190;6.576;2022-08-19T03:52:02;7.40;;;6.80;;
13349;SDS011;6744;53.190;6.576;2022-08-19T03:54:32;7.90;;;7.20;;
13349;SDS011;6744;53.190;6.576;2022-08-19T03:56:57;7.20;;;6.67;;
13349;SDS011;6744;53.190;6.576;2022-08-19T03:59:24;8.77;;;7.57;;
13349;SDS011;6744;53.190;6.576;2022-08-19T04:01:54;7.23;;;6.63;;
13349;SDS011;6744;53.190;6.576;2022-08-19T04:04:20;7.13;;;6.53;;
13349;SDS011;6744;53.190;6.576;2022-08-19T04:06:46;8.13;;;7.37;;
13349;SDS011;6744;53.190;6.576;2022-08-19T04:09:12;7.57;;;6.77;;
13349;SDS011;6744;53.190;6.576;2022-08-19T04:11:48;7.47;;;6.87;;
13349;SDS011;6744;53.190;6.576;2022-08-19T04:14:18;6.93;;;6.40;;
13349;SDS011;6744;53.190;6.576;2022-08-19T04:16:46;8.03;;;7.23;;
13349;SDS011;6744;53.190;6.576;2022-08-19T04:19:12;8.30;;;7.60;;
13349;SDS011;6744;53.190;6.576;2022-08-19T04:21:39;8.13;;;7.43;;
13349;SDS011;6744;53.190;6.576;2022-08-19T04:24:05;8.13;;;7.33;;
13349;SDS011;6744;53.190;6.576;2022-08-19T04:26:32;9.00;;;8.20;;
13349;SDS011;6744;53.190;6.576;2022-08-19T04:29:00;8.60;;;7.90;;
13349;SDS011;6744;53.190;6.576;2022-08-19T04:31:30;9.17;;;8.33;;
13349;SDS011;6744;53.190;6.576;2022-08-19T04:33:57;9.00;;;8.20;;
13349;SDS011;6744;53.190;6.576;2022-08-19T04:36:25;8.50;;;7.70;;
13349;SDS011;6744;53.190;6.576;2022-08-19T04:38:54;8.80;;;8.10;;
13349;SDS011;6744;53.190;6.576;2022-08-19T04:41:21;9.60;;;8.80;;
13349;SDS011;6744;53.190;6.576;2022-08-19T04:44:05;8.60;;;7.80;;
13349;SDS011;6744;53.190;6.576;2022-08-19T04:46:31;8.90;;;8.10;;
13349;SDS011;6744;53.190;6.576;2022-08-19T04:48:58;8.87;;;8.13;;
13349;SDS011;6744;53.190;6.576;2022-08-19T04:51:24;8.00;;;7.30;;
13349;SDS011;6744;53.190;6.576;2022-08-19T04:53:49;8.10;;;7.40;;
13349;SDS011;6744;53.190;6.576;2022-08-19T04:56:17;8.60;;;7.80;;
13349;SDS011;6744;53.190;6.576;2022-08-19T04:58:44;8.40;;;7.70;;
13349;SDS011;6744;53.190;6.576;2022-08-19T05:01:15;7.60;;;6.90;;
13349;SDS011;6744;53.190;6.576;2022-08-19T05:03:43;8.20;;;7.50;;
13349;SDS011;6744;53.190;6.576;2022-08-19T05:06:10;8.83;;;8.07;;
13349;SDS011;6744;53.190;6.576;2022-08-19T05:08:37;7.83;;;7.23;;
13349;SDS011;6744;53.190;6.576;2022-08-19T05:11:15;7.77;;;7.10;;
13349;SDS011;6744;53.190;6.576;2022-08-19T05:13:45;8.50;;;7.67;;
13349;SDS011;6744;53.190;6.576;2022-08-19T05:16:13;8.17;;;7.47;;
13349;SDS011;6744;53.190;6.576;2022-08-19T05:18:40;9.00;;;8.20;;
13349;SDS011;6744;53.190;6.576;2022-08-19T05:21:24;8.63;;;7.90;;
13349;SDS011;6744;53.190;6.576;2022-08-19T05:24:09;8.50;;;7.80;;
13349;SDS011;6744;53.190;6.576;2022-08-19T05:26:35;8.93;;;8.20;;
13349;SDS011;6744;53.190;6.576;2022-08-19T05:29:04;9.03;;;8.23;;
13349;SDS011;6744;53.190;6.576;2022-08-19T05:31:30;10.80;;;9.90;;
13349;SDS011;6744;53.190;6.576;2022-08-19T05:33:56;11.17;;;10.07;;
13349;SDS011;6744;53.190;6.576;2022-08-19T05:36:23;12.33;;;11.03;;
13349;SDS011;6744;53.190;6.576;2022-08-19T05:38:52;11.80;;;10.70;;
13349;SDS011;6744;53.190;6.576;2022-08-19T05:41:18;10.97;;;10.07;;
13349;SDS011;6744;53.190;6.576;2022-08-19T05:43:44;10.77;;;9.77;;
13349;SDS011;6744;53.190;6.576;2022-08-19T05:46:15;11.27;;;10.33;;
13349;SDS011;6744;53.190;6.576;2022-08-19T05:48:43;10.63;;;9.63;;
13349;SDS011;6744;53.190;6.576;2022-08-19T05:51:08;10.40;;;9.50;;
13349;SDS011;6744;53.190;6.576;2022-08-19T05:53:34;10.67;;;9.67;;
13349;SDS011;6744;53.190;6.576;2022-08-19T05:56:06;10.63;;;9.63;;
13349;SDS011;6744;53.190;6.576;2022-08-19T05:58:33;11.13;;;10.13;;
13349;SDS011;6744;53.190;6.576;2022-08-19T06:01:00;10.77;;;9.87;;
13349;SDS011;6744;53.190;6.576;2022-08-19T06:03:33;13.50;;;12.20;;
13349;SDS011;6744;53.190;6.576;2022-08-19T06:05:59;13.40;;;12.03;;
13349;SDS011;6744;53.190;6.576;2022-08-19T06:08:25;11.93;;;10.83;;
13349;SDS011;6744;53.190;6.576;2022-08-19T06:10:51;11.77;;;10.70;;
13349;SDS011;6744;53.190;6.576;2022-08-19T06:13:17;13.83;;;12.53;;
13349;SDS011;6744;53.190;6.576;2022-08-19T06:15:44;14.93;;;13.43;;
13349;SDS011;6744;53.190;6.576;2022-08-19T06:18:12;11.67;;;10.60;;
13349;SDS011;6744;53.190;6.576;2022-08-19T06:20:38;11.93;;;10.83;;
13349;SDS011;6744;53.190;6.576;2022-08-19T06:23:04;13.93;;;11.83;;
13349;SDS011;6744;53.190;6.576;2022-08-19T06:25:29;14.67;;;12.80;;
13349;SDS011;6744;53.190;6.576;2022-08-19T06:27:55;12.13;;;11.03;;
13349;SDS011;6744;53.190;6.576;2022-08-19T06:30:20;12.50;;;11.40;;
13349;SDS011;6744;53.190;6.576;2022-08-19T06:32:46;11.70;;;10.70;;
13349;SDS011;6744;53.190;6.576;2022-08-19T06:35:11;13.00;;;11.67;;
13349;SDS011;6744;53.190;6.576;2022-08-19T06:37:38;12.50;;;11.40;;
13349;SDS011;6744;53.190;6.576;2022-08-19T06:40:03;11.07;;;10.17;;
13349;SDS011;6744;53.190;6.576;2022-08-19T06:42:29;12.90;;;11.53;;
13349;SDS011;6744;53.190;6.576;2022-08-19T06:44:56;12.60;;;11.40;;
13349;SDS011;6744;53.190;6.576;2022-08-19T06:47:22;12.10;;;11.03;;
13349;SDS011;6744;53.190;6.576;2022-08-19T06:49:48;12.33;;;11.07;;
13349;SDS011;6744;53.190;6.576;2022-08-19T06:52:13;11.87;;;10.67;;
13349;SDS011;6744;53.190;6.576;2022-08-19T06:54:39;10.47;;;9.47;;
13349;SDS011;6744;53.190;6.576;2022-08-19T06:57:06;10.97;;;9.97;;
13349;SDS011;6744;53.190;6.576;2022-08-19T06:59:34;10.07;;;9.17;;
13349;SDS011;6744;53.190;6.576;2022-08-19T07:02:04;9.53;;;8.63;;
13349;SDS011;6744;53.190;6.576;2022-08-19T07:04:33;10.57;;;9.60;;
13349;SDS011;6744;53.190;6.576;2022-08-19T07:09:30;10.83;;;9.80;;
13349;SDS011;6744;53.190;6.576;2022-08-19T07:11:56;10.40;;;9.50;;
13349;SDS011;6744;53.190;6.576;2022-08-19T07:14:22;9.93;;;9.00;;
13349;SDS011;6744;53.190;6.576;2022-08-19T07:16:50;10.20;;;9.30;;
13349;SDS011;6744;53.190;6.576;2022-08-19T07:19:17;9.73;;;8.70;;
13349;SDS011;6744;53.190;6.576;2022-08-19T07:21:44;8.97;;;8.17;;
13349;SDS011;6744;53.190;6.576;2022-08-19T07:24:11;13.73;;;10.50;;
13349;SDS011;6744;53.190;6.576;2022-08-19T07:26:38;10.93;;;9.83;;
13349;SDS011;6744;53.190;6.576;2022-08-19T07:29:05;9.13;;;8.27;;
13349;SDS011;6744;53.190;6.576;2022-08-19T07:31:31;8.67;;;7.97;;
13349;SDS011;6744;53.190;6.576;2022-08-19T07:34:01;10.87;;;9.57;;
13349;SDS011;6744;53.190;6.576;2022-08-19T07:36:34;8.80;;;8.10;;
13349;SDS011;6744;53.190;6.576;2022-08-19T07:39:03;10.50;;;8.20;;
13349;SDS011;6744;53.190;6.576;2022-08-19T07:41:32;9.73;;;8.87;;
13349;SDS011;6744;53.190;6.576;2022-08-19T07:43:58;8.40;;;7.60;;
13349;SDS011;6744;53.190;6.576;2022-08-19T07:46:28;8.13;;;7.43;;
13349;SDS011;6744;53.190;6.576;2022-08-19T07:48:56;8.10;;;7.30;;
13349;SDS011;6744;53.190;6.576;2022-08-19T07:51:21;7.97;;;7.27;;
13349;SDS011;6744;53.190;6.576;2022-08-19T07:53:48;7.90;;;7.10;;
13349;SDS011;6744;53.190;6.576;2022-08-19T07:56:15;6.87;;;6.37;;
13349;SDS011;6744;53.190;6.576;2022-08-19T07:58:41;8.33;;;7.53;;
13349;SDS011;6744;53.190;6.576;2022-08-19T08:01:10;6.83;;;5.93;;
13349;SDS011;6744;53.190;6.576;2022-08-19T08:03:37;7.00;;;6.30;;
13349;SDS011;6744;53.190;6.576;2022-08-19T08:06:21;6.13;;;5.50;;
13349;SDS011;6744;53.190;6.576;2022-08-19T08:09:08;5.90;;;5.37;;
13349;SDS011;6744;53.190;6.576;2022-08-19T08:11:42;5.97;;;5.37;;
13349;SDS011;6744;53.190;6.576;2022-08-19T08:14:16;6.10;;;5.50;;
13349;SDS011;6744;53.190;6.576;2022-08-19T08:16:52;6.47;;;5.87;;
13349;SDS011;6744;53.190;6.576;2022-08-19T08:19:19;5.67;;;5.03;;
13349;SDS011;6744;53.190;6.576;2022-08-19T08:21:46;5.40;;;4.87;;
13349;SDS011;6744;53.190;6.576;2022-08-19T08:24:12;6.53;;;5.90;;
13349;SDS011;6744;53.190;6.576;2022-08-19T08:26:38;5.50;;;5.10;;
13349;SDS011;6744;53.190;6.576;2022-08-19T08:29:04;5.10;;;4.70;;
13349;SDS011;6744;53.190;6.576;2022-08-19T08:31:29;5.50;;;5.00;;
13349;SDS011;6744;53.190;6.576;2022-08-19T08:33:55;5.03;;;4.60;;
13349;SDS011;6744;53.190;6.576;2022-08-19T08:36:20;4.83;;;4.43;;
13349;SDS011;6744;53.190;6.576;2022-08-19T08:38:45;4.67;;;4.27;;
13349;SDS011;6744;53.190;6.576;2022-08-19T08:41:31;6.10;;;5.50;;
13349;SDS011;6744;53.190;6.576;2022-08-19T08:44:21;4.77;;;4.37;;
13349;SDS011;6744;53.190;6.576;2022-08-19T08:46:53;5.97;;;5.47;;
13349;SDS011;6744;53.190;6.576;2022-08-19T08:49:43;5.13;;;4.73;;
13349;SDS011;6744;53.190;6.576;2022-08-19T08:52:18;7.50;;;6.40;;
13349;SDS011;6744;53.190;6.576;2022-08-19T08:54:47;6.43;;;5.93;;
13349;SDS011;6744;53.190;6.576;2022-08-19T08:57:15;6.30;;;5.80;;
13349;SDS011;6744;53.190;6.576;2022-08-19T08:59:45;7.53;;;6.93;;
13349;SDS011;6744;53.190;6.576;2022-08-19T09:02:15;7.47;;;6.80;;
13349;SDS011;6744;53.190;6.576;2022-08-19T09:04:41;7.07;;;6.47;;
13349;SDS011;6744;53.190;6.576;2022-08-19T09:09:40;7.63;;;6.93;;
13349;SDS011;6744;53.190;6.576;2022-08-19T09:12:14;6.50;;;6.00;;
13349;SDS011;6744;53.190;6.576;2022-08-19T09:17:21;6.53;;;6.03;;
13349;SDS011;6744;53.190;6.576;2022-08-19T09:22:19;6.53;;;5.87;;
13349;SDS011;6744;53.190;6.576;2022-08-19T09:24:48;6.80;;;6.20;;
13349;SDS011;6744;53.190;6.576;2022-08-19T09:27:14;9.93;;;9.13;;
13349;SDS011;6744;53.190;6.576;2022-08-19T09:29:40;8.73;;;7.93;;
13349;SDS011;6744;53.190;6.576;2022-08-19T09:32:05;7.93;;;7.33;;
13349;SDS011;6744;53.190;6.576;2022-08-19T09:34:31;8.13;;;7.43;;
13349;SDS011;6744;53.190;6.576;2022-08-19T09:36:57;8.60;;;7.93;;
13349;SDS011;6744;53.190;6.576;2022-08-19T09:39:23;7.23;;;6.63;;
13349;SDS011;6744;53.190;6.576;2022-08-19T09:41:49;5.97;;;5.47;;
13349;SDS011;6744;53.190;6.576;2022-08-19T09:44:14;6.00;;;5.50;;
13349;SDS011;6744;53.190;6.576;2022-08-19T09:46:40;7.07;;;6.50;;
13349;SDS011;6744;53.190;6.576;2022-08-19T09:49:06;5.30;;;4.90;;
13349;SDS011;6744;53.190;6.576;2022-08-19T09:51:31;7.60;;;6.90;;
13349;SDS011;6744;53.190;6.576;2022-08-19T09:54:01;6.80;;;6.10;;
13349;SDS011;6744;53.190;6.576;2022-08-19T09:56:28;7.50;;;6.80;;
13349;SDS011;6744;53.190;6.576;2022-08-19T09:58:55;7.53;;;6.03;;
13349;SDS011;6744;53.190;6.576;2022-08-19T10:01:24;7.67;;;6.97;;
13349;SDS011;6744;53.190;6.576;2022-08-19T10:03:52;5.80;;;5.20;;
13349;SDS011;6744;53.190;6.576;2022-08-19T10:06:20;6.00;;;5.37;;
13349;SDS011;6744;53.190;6.576;2022-08-19T10:08:46;6.13;;;5.47;;
13349;SDS011;6744;53.190;6.576;2022-08-19T10:11:12;7.00;;;6.37;;
13349;SDS011;6744;53.190;6.576;2022-08-19T10:13:41;5.57;;;4.83;;
13349;SDS011;6744;53.190;6.576;2022-08-19T10:16:07;6.50;;;6.00;;
13349;SDS011;6744;53.190;6.576;2022-08-19T10:18:34;6.73;;;6.13;;
13349;SDS011;6744;53.190;6.576;2022-08-19T10:21:04;6.20;;;5.67;;
13349;SDS011;6744;53.190;6.576;2022-08-19T10:23:35;6.33;;;5.73;;
13349;SDS011;6744;53.190;6.576;2022-08-19T10:26:02;5.87;;;5.40;;
13349;SDS011;6744;53.190;6.576;2022-08-19T10:28:30;7.33;;;6.63;;
13349;SDS011;6744;53.190;6.576;2022-08-19T10:30:56;6.70;;;6.10;;
13349;SDS011;6744;53.190;6.576;2022-08-19T10:33:22;6.70;;;6.20;;
13349;SDS011;6744;53.190;6.576;2022-08-19T10:35:47;7.00;;;5.87;;
13349;SDS011;6744;53.190;6.576;2022-08-19T10:38:13;6.37;;;5.77;;
13349;SDS011;6744;53.190;6.576;2022-08-19T10:40:39;8.67;;;8.00;;
13349;SDS011;6744;53.190;6.576;2022-08-19T10:43:04;7.23;;;6.63;;
13349;SDS011;6744;53.190;6.576;2022-08-19T10:45:30;7.57;;;6.77;;
13349;SDS011;6744;53.190;6.576;2022-08-19T10:47:55;7.17;;;6.60;;
13349;SDS011;6744;53.190;6.576;2022-08-19T10:50:20;8.47;;;7.63;;
13349;SDS011;6744;53.190;6.576;2022-08-19T10:53:05;6.07;;;5.50;;
13349;SDS011;6744;53.190;6.576;2022-08-19T10:55:35;6.57;;;6.07;;
13349;SDS011;6744;53.190;6.576;2022-08-19T10:58:19;5.70;;;5.20;;
13349;SDS011;6744;53.190;6.576;2022-08-19T11:00:54;5.37;;;4.90;;
13349;SDS011;6744;53.190;6.576;2022-08-19T11:03:21;7.57;;;6.90;;
13349;SDS011;6744;53.190;6.576;2022-08-19T11:05:51;6.50;;;6.00;;
13349;SDS011;6744;53.190;6.576;2022-08-19T11:08:22;6.80;;;6.20;;
13349;SDS011;6744;53.190;6.576;2022-08-19T11:10:50;9.00;;;8.20;;
13349;SDS011;6744;53.190;6.576;2022-08-19T11:13:18;7.93;;;7.23;;
13349;SDS011;6744;53.190;6.576;2022-08-19T11:15:44;7.97;;;7.30;;
13349;SDS011;6744;53.190;6.576;2022-08-19T11:18:12;9.10;;;8.40;;
13349;SDS011;6744;53.190;6.576;2022-08-19T11:20:37;8.37;;;7.73;;
13349;SDS011;6744;53.190;6.576;2022-08-19T11:23:03;8.03;;;7.33;;
13349;SDS011;6744;53.190;6.576;2022-08-19T11:25:30;8.47;;;7.70;;
13349;SDS011;6744;53.190;6.576;2022-08-19T11:27:55;8.43;;;7.73;;
13349;SDS011;6744;53.190;6.576;2022-08-19T11:30:20;6.73;;;6.23;;
13349;SDS011;6744;53.190;6.576;2022-08-19T11:32:46;7.13;;;6.57;;
13349;SDS011;6744;53.190;6.576;2022-08-19T11:35:12;6.30;;;5.83;;
13349;SDS011;6744;53.190;6.576;2022-08-19T11:37:38;8.67;;;7.93;;
13349;SDS011;6744;53.190;6.576;2022-08-19T11:40:05;8.00;;;7.30;;
13349;SDS011;6744;53.190;6.576;2022-08-19T11:42:31;7.40;;;6.80;;
13349;SDS011;6744;53.190;6.576;2022-08-19T11:45:15;6.93;;;6.33;;
13349;SDS011;6744;53.190;6.576;2022-08-19T11:47:40;7.60;;;7.00;;
13349;SDS011;6744;53.190;6.576;2022-08-19T11:50:05;6.57;;;6.07;;
13349;SDS011;6744;53.190;6.576;2022-08-19T11:52:31;9.20;;;8.50;;
13349;SDS011;6744;53.190;6.576;2022-08-19T11:54:56;8.03;;;7.30;;
13349;SDS011;6744;53.190;6.576;2022-08-19T11:57:22;6.83;;;6.23;;
13349;SDS011;6744;53.190;6.576;2022-08-19T11:59:48;7.97;;;7.27;;
13349;SDS011;6744;53.190;6.576;2022-08-19T12:02:14;7.17;;;6.67;;
13349;SDS011;6744;53.190;6.576;2022-08-19T12:04:40;6.73;;;6.13;;
13349;SDS011;6744;53.190;6.576;2022-08-19T12:07:05;7.90;;;7.10;;
13349;SDS011;6744;53.190;6.576;2022-08-19T12:09:31;8.00;;;7.40;;
13349;SDS011;6744;53.190;6.576;2022-08-19T12:11:57;9.10;;;8.33;;
13349;SDS011;6744;53.190;6.576;2022-08-19T12:14:22;8.80;;;8.10;;
13349;SDS011;6744;53.190;6.576;2022-08-19T12:16:48;8.03;;;7.33;;
13349;SDS011;6744;53.190;6.576;2022-08-19T12:19:14;7.33;;;6.73;;
13349;SDS011;6744;53.190;6.576;2022-08-19T12:21:40;7.70;;;7.10;;
13349;SDS011;6744;53.190;6.576;2022-08-19T12:24:06;7.50;;;6.90;;
13349;SDS011;6744;53.190;6.576;2022-08-19T12:26:32;8.63;;;7.97;;
13349;SDS011;6744;53.190;6.576;2022-08-19T12:28:58;9.30;;;8.50;;
13349;SDS011;6744;53.190;6.576;2022-08-19T12:31:24;8.57;;;7.87;;
13349;SDS011;6744;53.190;6.576;2022-08-19T12:33:50;8.37;;;7.67;;
13349;SDS011;6744;53.190;6.576;2022-08-19T12:36:17;7.97;;;7.37;;
13349;SDS011;6744;53.190;6.576;2022-08-19T12:38:42;8.80;;;8.00;;
13349;SDS011;6744;53.190;6.576;2022-08-19T12:41:10;7.30;;;6.80;;
13349;SDS011;6744;53.190;6.576;2022-08-19T12:43:37;6.80;;;6.30;;
13349;SDS011;6744;53.190;6.576;2022-08-19T12:46:06;7.53;;;6.90;;
13349;SDS011;6744;53.190;6.576;2022-08-19T12:48:32;7.30;;;6.67;;
13349;SDS011;6744;53.190;6.576;2022-08-19T12:50:58;7.50;;;6.90;;
13349;SDS011;6744;53.190;6.576;2022-08-19T12:53:24;7.60;;;7.00;;
13349;SDS011;6744;53.190;6.576;2022-08-19T12:55:56;7.43;;;6.73;;
13349;SDS011;6744;53.190;6.576;2022-08-19T12:58:22;7.30;;;6.70;;
13349;SDS011;6744;53.190;6.576;2022-08-19T13:00:48;7.53;;;6.93;;
13349;SDS011;6744;53.190;6.576;2022-08-19T13:03:14;7.33;;;6.73;;
13349;SDS011;6744;53.190;6.576;2022-08-19T13:05:40;6.87;;;6.33;;
13349;SDS011;6744;53.190;6.576;2022-08-19T13:08:05;9.10;;;8.30;;
13349;SDS011;6744;53.190;6.576;2022-08-19T13:10:32;7.47;;;6.87;;
13349;SDS011;6744;53.190;6.576;2022-08-19T13:13:06;7.30;;;6.60;;
13349;SDS011;6744;53.190;6.576;2022-08-19T13:15:33;7.07;;;6.47;;
13349;SDS011;6744;53.190;6.576;2022-08-19T13:17:59;8.07;;;7.43;;
13349;SDS011;6744;53.190;6.576;2022-08-19T13:20:25;8.70;;;7.80;;
13349;SDS011;6744;53.190;6.576;2022-08-19T13:22:51;8.33;;;7.57;;
13349;SDS011;6744;53.190;6.576;2022-08-19T13:25:16;8.33;;;7.63;;
13349;SDS011;6744;53.190;6.576;2022-08-19T13:27:44;9.40;;;8.50;;
13349;SDS011;6744;53.190;6.576;2022-08-19T13:30:11;9.57;;;8.47;;
13349;SDS011;6744;53.190;6.576;2022-08-19T13:32:56;10.00;;;9.10;;
13349;SDS011;6744;53.190;6.576;2022-08-19T13:35:40;11.37;;;10.30;;
13349;SDS011;6744;53.190;6.576;2022-08-19T13:38:09;11.10;;;10.00;;
13349;SDS011;6744;53.190;6.576;2022-08-19T13:40:35;10.57;;;9.20;;
13349;SDS011;6744;53.190;6.576;2022-08-19T13:43:02;9.70;;;8.80;;
13349;SDS011;6744;53.190;6.576;2022-08-19T13:45:29;9.40;;;8.50;;
13349;SDS011;6744;53.190;6.576;2022-08-19T13:47:55;8.07;;;7.27;;
13349;SDS011;6744;53.190;6.576;2022-08-19T13:50:22;7.43;;;5.67;;
13349;SDS011;6744;53.190;6.576;2022-08-19T13:52:53;6.27;;;5.20;;
13349;SDS011;6744;53.190;6.576;2022-08-19T13:55:19;5.23;;;4.70;;
13349;SDS011;6744;53.190;6.576;2022-08-19T13:57:45;5.43;;;4.93;;
13349;SDS011;6744;53.190;6.576;2022-08-19T14:00:13;6.40;;;5.80;;
13349;SDS011;6744;53.190;6.576;2022-08-19T14:02:42;6.30;;;5.70;;
13349;SDS011;6744;53.190;6.576;2022-08-19T14:05:09;7.20;;;6.50;;
13349;SDS011;6744;53.190;6.576;2022-08-19T14:07:36;6.47;;;5.87;;
13349;SDS011;6744;53.190;6.576;2022-08-19T14:10:02;5.90;;;5.30;;
13349;SDS011;6744;53.190;6.576;2022-08-19T14:12:28;5.90;;;5.30;;
13349;SDS011;6744;53.190;6.576;2022-08-19T14:14:53;8.07;;;6.57;;
13349;SDS011;6744;53.190;6.576;2022-08-19T14:17:19;7.47;;;6.87;;
13349;SDS011;6744;53.190;6.576;2022-08-19T14:19:44;6.90;;;6.30;;
13349;SDS011;6744;53.190;6.576;2022-08-19T14:22:09;8.30;;;7.50;;
13349;SDS011;6744;53.190;6.576;2022-08-19T14:24:36;7.50;;;6.70;;
13349;SDS011;6744;53.190;6.576;2022-08-19T14:27:03;8.00;;;7.20;;
13349;SDS011;6744;53.190;6.576;2022-08-19T14:29:29;8.73;;;7.83;;
13349;SDS011;6744;53.190;6.576;2022-08-19T14:31:54;8.80;;;8.00;;
13349;SDS011;6744;53.190;6.576;2022-08-19T14:34:21;7.23;;;6.53;;
13349;SDS011;6744;53.190;6.576;2022-08-19T14:36:47;9.83;;;8.83;;
13349;SDS011;6744;53.190;6.576;2022-08-19T14:39:12;7.60;;;6.90;;
13349;SDS011;6744;53.190;6.576;2022-08-19T14:41:39;7.47;;;6.73;;
13349;SDS011;6744;53.190;6.576;2022-08-19T14:44:05;9.47;;;8.47;;
13349;SDS011;6744;53.190;6.576;2022-08-19T14:46:31;9.40;;;8.37;;
13349;SDS011;6744;53.190;6.576;2022-08-19T14:48:56;8.73;;;6.97;;
13349;SDS011;6744;53.190;6.576;2022-08-19T14:51:23;7.73;;;7.03;;
13349;SDS011;6744;53.190;6.576;2022-08-19T14:53:49;8.03;;;7.23;;
13349;SDS011;6744;53.190;6.576;2022-08-19T14:56:16;9.33;;;8.43;;
13349;SDS011;6744;53.190;6.576;2022-08-19T14:58:45;8.80;;;7.87;;
13349;SDS011;6744;53.190;6.576;2022-08-19T15:01:11;9.60;;;8.47;;
13349;SDS011;6744;53.190;6.576;2022-08-19T15:03:37;10.67;;;9.77;;
13349;SDS011;6744;53.190;6.576;2022-08-19T15:06:04;10.77;;;8.73;;
13349;SDS011;6744;53.190;6.576;2022-08-19T15:08:31;10.27;;;8.77;;
13349;SDS011;6744;53.190;6.576;2022-08-19T15:10:57;8.07;;;7.37;;